sensor_id;sensor_type;location;lat;lon;timestamp;P1;durP1;ratioP1;P2;durP2;ratioP2
11827;SDS011;5971;49.646;8.568;2023-04-08T00:00:17;3.65;;;2.40;;
11827;SDS011;5971;49.646;8.568;2023-04-08T00:03:19;3.72;;;2.30;;
11827;SDS011;5971;49.646;8.568;2023-04-08T00:06:21;3.85;;;1.80;;
11827;SDS011;5971;49.646;8.568;2023-04-08T00:09:22;3.22;;;2.45;;
11827;SDS011;5971;49.646;8.568;2023-04-08T00:12:23;3.38;;;2.53;;
11827;SDS011;5971;49.646;8.568;2023-04-08T00:15:25;2.80;;;1.67;;
11827;SDS011;5971;49.646;8.568;2023-04-08T00:18:26;3.15;;;1.85;;
11827;SDS011;5971;49.646;8.568;2023-04-08T00:21:27;3.92;;;2.38;;
11827;SDS011;5971;49.646;8.568;2023-04-08T00:24:29;3.33;;;2.13;;
11827;SDS011;5971;49.646;8.568;2023-04-08T00:27:31;3.70;;;2.60;;
11827;SDS011;5971;49.646;8.568;2023-04-08T00:30:32;4.20;;;2.60;;
11827;SDS011;5971;49.646;8.568;2023-04-08T00:33:34;3.80;;;2.33;;
11827;SDS011;5971;49.646;8.568;2023-04-08T00:36:35;4.30;;;2.13;;
11827;SDS011;5971;49.646;8.568;2023-04-08T00:39:36;3.50;;;2.65;;
11827;SDS011;5971;49.646;8.568;2023-04-08T00:42:38;3.70;;;2.45;;
11827;SDS011;5971;49.646;8.568;2023-04-08T00:45:39;4.22;;;2.08;;
11827;SDS011;5971;49.646;8.568;2023-04-08T00:48:40;3.72;;;2.67;;
11827;SDS011;5971;49.646;8.568;2023-04-08T00:51:42;3.95;;;2.17;;
11827;SDS011;5971;49.646;8.568;2023-04-08T00:54:43;3.80;;;2.40;;
11827;SDS011;5971;49.646;8.568;2023-04-08T00:57:44;4.45;;;2.67;;
11827;SDS011;5971;49.646;8.568;2023-04-08T01:00:49;3.30;;;2.38;;
11827;SDS011;5971;49.646;8.568;2023-04-08T01:04:13;3.83;;;2.25;;
11827;SDS011;5971;49.646;8.568;2023-04-08T01:07:21;3.83;;;2.22;;
11827;SDS011;5971;49.646;8.568;2023-04-08T01:10:26;5.25;;;2.90;;
11827;SDS011;5971;49.646;8.568;2023-04-08T01:13:30;5.18;;;2.75;;
11827;SDS011;5971;49.646;8.568;2023-04-08T01:16:34;4.95;;;3.17;;
11827;SDS011;5971;49.646;8.568;2023-04-08T01:19:39;5.32;;;2.85;;
11827;SDS011;5971;49.646;8.568;2023-04-08T01:22:49;4.70;;;2.63;;
11827;SDS011;5971;49.646;8.568;2023-04-08T01:25:55;5.63;;;3.03;;
11827;SDS011;5971;49.646;8.568;2023-04-08T01:28:58;5.32;;;2.45;;
11827;SDS011;5971;49.646;8.568;2023-04-08T01:32:00;4.65;;;3.25;;
11827;SDS011;5971;49.646;8.568;2023-04-08T01:35:02;4.80;;;3.30;;
11827;SDS011;5971;49.646;8.568;2023-04-08T01:38:05;6.00;;;2.50;;
11827;SDS011;5971;49.646;8.568;2023-04-08T01:41:07;5.10;;;2.70;;
11827;SDS011;5971;49.646;8.568;2023-04-08T01:44:10;4.70;;;2.38;;
11827;SDS011;5971;49.646;8.568;2023-04-08T01:47:12;4.97;;;2.58;;
11827;SDS011;5971;49.646;8.568;2023-04-08T01:50:13;5.68;;;3.45;;
11827;SDS011;5971;49.646;8.568;2023-04-08T01:53:15;4.75;;;3.00;;
11827;SDS011;5971;49.646;8.568;2023-04-08T01:56:17;3.80;;;2.63;;
11827;SDS011;5971;49.646;8.568;2023-04-08T02:02:23;6.70;;;3.78;;
11827;SDS011;5971;49.646;8.568;2023-04-08T02:05:26;5.00;;;3.30;;
11827;SDS011;5971;49.646;8.568;2023-04-08T02:08:28;6.60;;;2.80;;
11827;SDS011;5971;49.646;8.568;2023-04-08T02:11:29;5.07;;;2.88;;
11827;SDS011;5971;49.646;8.568;2023-04-08T02:14:30;5.22;;;3.67;;
11827;SDS011;5971;49.646;8.568;2023-04-08T02:21:01;8.75;;;3.58;;
11827;SDS011;5971;49.646;8.568;2023-04-08T02:23:57;5.05;;;3.03;;
11827;SDS011;5971;49.646;8.568;2023-04-08T02:27:02;8.02;;;3.83;;
11827;SDS011;5971;49.646;8.568;2023-04-08T02:30:04;6.20;;;3.53;;
11827;SDS011;5971;49.646;8.568;2023-04-08T02:33:07;6.57;;;3.20;;
11827;SDS011;5971;49.646;8.568;2023-04-08T02:36:08;8.25;;;4.18;;
11827;SDS011;5971;49.646;8.568;2023-04-08T02:39:11;4.95;;;3.17;;
11827;SDS011;5971;49.646;8.568;2023-04-08T02:42:12;5.53;;;3.90;;
11827;SDS011;5971;49.646;8.568;2023-04-08T02:45:14;7.38;;;3.63;;
11827;SDS011;5971;49.646;8.568;2023-04-08T02:48:15;6.30;;;4.05;;
11827;SDS011;5971;49.646;8.568;2023-04-08T02:51:16;7.20;;;4.18;;
11827;SDS011;5971;49.646;8.568;2023-04-08T02:54:18;8.82;;;4.97;;
11827;SDS011;5971;49.646;8.568;2023-04-08T02:57:19;6.35;;;3.65;;
11827;SDS011;5971;49.646;8.568;2023-04-08T03:00:20;5.40;;;3.42;;
11827;SDS011;5971;49.646;8.568;2023-04-08T03:03:21;5.80;;;3.28;;
11827;SDS011;5971;49.646;8.568;2023-04-08T03:06:27;5.90;;;3.40;;
11827;SDS011;5971;49.646;8.568;2023-04-08T03:09:29;5.97;;;3.88;;
11827;SDS011;5971;49.646;8.568;2023-04-08T03:12:30;7.00;;;3.63;;
11827;SDS011;5971;49.646;8.568;2023-04-08T03:15:32;5.53;;;3.42;;
11827;SDS011;5971;49.646;8.568;2023-04-08T03:18:33;8.35;;;3.90;;
11827;SDS011;5971;49.646;8.568;2023-04-08T03:21:34;7.40;;;3.05;;
11827;SDS011;5971;49.646;8.568;2023-04-08T03:24:35;9.15;;;4.00;;
11827;SDS011;5971;49.646;8.568;2023-04-08T03:27:37;6.82;;;3.85;;
11827;SDS011;5971;49.646;8.568;2023-04-08T03:30:38;9.27;;;4.22;;
11827;SDS011;5971;49.646;8.568;2023-04-08T03:33:39;7.43;;;3.42;;
11827;SDS011;5971;49.646;8.568;2023-04-08T03:36:41;7.38;;;4.22;;
11827;SDS011;5971;49.646;8.568;2023-04-08T03:39:42;7.15;;;3.33;;
11827;SDS011;5971;49.646;8.568;2023-04-08T03:42:43;10.38;;;4.68;;
11827;SDS011;5971;49.646;8.568;2023-04-08T03:45:44;6.90;;;3.38;;
11827;SDS011;5971;49.646;8.568;2023-04-08T03:48:46;7.00;;;3.95;;
11827;SDS011;5971;49.646;8.568;2023-04-08T03:51:47;7.57;;;4.60;;
11827;SDS011;5971;49.646;8.568;2023-04-08T03:54:48;8.02;;;3.97;;
11827;SDS011;5971;49.646;8.568;2023-04-08T03:57:50;6.13;;;3.75;;
11827;SDS011;5971;49.646;8.568;2023-04-08T04:00:52;7.07;;;3.75;;
11827;SDS011;5971;49.646;8.568;2023-04-08T04:03:53;6.88;;;3.65;;
11827;SDS011;5971;49.646;8.568;2023-04-08T04:06:55;6.15;;;4.05;;
11827;SDS011;5971;49.646;8.568;2023-04-08T04:09:56;7.15;;;4.65;;
11827;SDS011;5971;49.646;8.568;2023-04-08T04:12:57;6.97;;;3.20;;
11827;SDS011;5971;49.646;8.568;2023-04-08T04:15:58;6.10;;;3.78;;
11827;SDS011;5971;49.646;8.568;2023-04-08T04:19:00;5.95;;;3.75;;
11827;SDS011;5971;49.646;8.568;2023-04-08T04:22:01;5.57;;;3.38;;
11827;SDS011;5971;49.646;8.568;2023-04-08T04:25:03;5.97;;;3.08;;
11827;SDS011;5971;49.646;8.568;2023-04-08T04:28:04;5.32;;;3.10;;
11827;SDS011;5971;49.646;8.568;2023-04-08T04:31:05;5.80;;;3.15;;
11827;SDS011;5971;49.646;8.568;2023-04-08T04:34:07;6.55;;;3.33;;
11827;SDS011;5971;49.646;8.568;2023-04-08T04:37:08;6.10;;;2.53;;
11827;SDS011;5971;49.646;8.568;2023-04-08T04:40:10;4.53;;;2.83;;
11827;SDS011;5971;49.646;8.568;2023-04-08T04:43:11;5.72;;;2.75;;
11827;SDS011;5971;49.646;8.568;2023-04-08T04:46:12;5.97;;;3.30;;
11827;SDS011;5971;49.646;8.568;2023-04-08T04:49:14;5.18;;;2.95;;
11827;SDS011;5971;49.646;8.568;2023-04-08T04:52:15;5.70;;;4.10;;
11827;SDS011;5971;49.646;8.568;2023-04-08T04:55:16;6.07;;;4.22;;
11827;SDS011;5971;49.646;8.568;2023-04-08T04:58:18;6.35;;;3.90;;
11827;SDS011;5971;49.646;8.568;2023-04-08T05:01:19;6.47;;;3.55;;
11827;SDS011;5971;49.646;8.568;2023-04-08T05:04:20;5.10;;;3.33;;
11827;SDS011;5971;49.646;8.568;2023-04-08T05:07:21;5.35;;;3.22;;
11827;SDS011;5971;49.646;8.568;2023-04-08T05:10:23;6.35;;;3.33;;
11827;SDS011;5971;49.646;8.568;2023-04-08T05:13:24;9.18;;;4.30;;
11827;SDS011;5971;49.646;8.568;2023-04-08T05:16:26;5.95;;;3.25;;
11827;SDS011;5971;49.646;8.568;2023-04-08T05:19:27;6.05;;;3.65;;
11827;SDS011;5971;49.646;8.568;2023-04-08T05:22:28;6.88;;;4.47;;
11827;SDS011;5971;49.646;8.568;2023-04-08T05:25:30;6.75;;;4.60;;
11827;SDS011;5971;49.646;8.568;2023-04-08T05:28:31;7.45;;;4.75;;
11827;SDS011;5971;49.646;8.568;2023-04-08T05:31:33;6.47;;;4.72;;
11827;SDS011;5971;49.646;8.568;2023-04-08T05:34:34;6.35;;;4.55;;
11827;SDS011;5971;49.646;8.568;2023-04-08T05:37:35;5.70;;;3.60;;
11827;SDS011;5971;49.646;8.568;2023-04-08T05:40:37;7.20;;;4.72;;
11827;SDS011;5971;49.646;8.568;2023-04-08T05:43:40;7.70;;;4.53;;
11827;SDS011;5971;49.646;8.568;2023-04-08T05:46:44;6.40;;;4.03;;
11827;SDS011;5971;49.646;8.568;2023-04-08T05:49:49;7.00;;;4.10;;
11827;SDS011;5971;49.646;8.568;2023-04-08T05:52:51;6.00;;;3.55;;
11827;SDS011;5971;49.646;8.568;2023-04-08T05:55:53;6.10;;;3.15;;
11827;SDS011;5971;49.646;8.568;2023-04-08T05:58:54;6.22;;;3.65;;
11827;SDS011;5971;49.646;8.568;2023-04-08T06:01:55;9.45;;;4.88;;
11827;SDS011;5971;49.646;8.568;2023-04-08T06:04:57;6.60;;;4.20;;
11827;SDS011;5971;49.646;8.568;2023-04-08T06:07:58;6.25;;;3.92;;
11827;SDS011;5971;49.646;8.568;2023-04-08T06:11:00;7.60;;;4.50;;
11827;SDS011;5971;49.646;8.568;2023-04-08T06:14:04;7.47;;;5.13;;
11827;SDS011;5971;49.646;8.568;2023-04-08T06:17:05;12.30;;;5.38;;
11827;SDS011;5971;49.646;8.568;2023-04-08T06:20:06;7.68;;;4.63;;
11827;SDS011;5971;49.646;8.568;2023-04-08T06:23:09;7.18;;;4.55;;
11827;SDS011;5971;49.646;8.568;2023-04-08T06:26:11;7.57;;;4.75;;
11827;SDS011;5971;49.646;8.568;2023-04-08T06:29:13;7.55;;;5.03;;
11827;SDS011;5971;49.646;8.568;2023-04-08T06:32:14;8.02;;;5.18;;
11827;SDS011;5971;49.646;8.568;2023-04-08T06:35:16;9.10;;;5.13;;
11827;SDS011;5971;49.646;8.568;2023-04-08T06:38:17;8.65;;;4.38;;
11827;SDS011;5971;49.646;8.568;2023-04-08T06:41:19;11.40;;;5.05;;
11827;SDS011;5971;49.646;8.568;2023-04-08T06:44:22;8.73;;;5.50;;
11827;SDS011;5971;49.646;8.568;2023-04-08T06:47:24;6.35;;;4.13;;
11827;SDS011;5971;49.646;8.568;2023-04-08T06:50:25;8.50;;;5.40;;
11827;SDS011;5971;49.646;8.568;2023-04-08T06:53:26;9.57;;;5.47;;
11827;SDS011;5971;49.646;8.568;2023-04-08T06:56:35;10.45;;;4.75;;
11827;SDS011;5971;49.646;8.568;2023-04-08T06:59:36;10.27;;;5.32;;
11827;SDS011;5971;49.646;8.568;2023-04-08T07:02:38;9.63;;;4.68;;
11827;SDS011;5971;49.646;8.568;2023-04-08T07:05:39;8.52;;;4.20;;
11827;SDS011;5971;49.646;8.568;2023-04-08T07:08:42;10.88;;;5.70;;
11827;SDS011;5971;49.646;8.568;2023-04-08T07:11:43;8.30;;;5.03;;
11827;SDS011;5971;49.646;8.568;2023-04-08T07:14:44;7.72;;;4.50;;
11827;SDS011;5971;49.646;8.568;2023-04-08T07:17:46;9.00;;;4.13;;
11827;SDS011;5971;49.646;8.568;2023-04-08T07:20:51;8.60;;;5.07;;
11827;SDS011;5971;49.646;8.568;2023-04-08T07:23:53;7.47;;;4.63;;
11827;SDS011;5971;49.646;8.568;2023-04-08T07:26:55;8.93;;;4.63;;
11827;SDS011;5971;49.646;8.568;2023-04-08T07:29:57;8.02;;;4.47;;
11827;SDS011;5971;49.646;8.568;2023-04-08T07:32:58;6.97;;;3.55;;
11827;SDS011;5971;49.646;8.568;2023-04-08T07:36:01;7.68;;;5.40;;
11827;SDS011;5971;49.646;8.568;2023-04-08T07:39:02;7.85;;;4.22;;
11827;SDS011;5971;49.646;8.568;2023-04-08T07:42:04;8.68;;;4.78;;
11827;SDS011;5971;49.646;8.568;2023-04-08T07:45:05;10.88;;;4.05;;
11827;SDS011;5971;49.646;8.568;2023-04-08T07:48:07;4.45;;;2.40;;
11827;SDS011;5971;49.646;8.568;2023-04-08T07:51:08;6.45;;;3.97;;
11827;SDS011;5971;49.646;8.568;2023-04-08T07:54:11;7.63;;;4.25;;
11827;SDS011;5971;49.646;8.568;2023-04-08T07:57:17;8.93;;;4.20;;
11827;SDS011;5971;49.646;8.568;2023-04-08T08:00:18;8.18;;;4.70;;
11827;SDS011;5971;49.646;8.568;2023-04-08T08:03:22;9.57;;;5.25;;
11827;SDS011;5971;49.646;8.568;2023-04-08T08:06:23;8.20;;;3.92;;
11827;SDS011;5971;49.646;8.568;2023-04-08T08:09:24;8.20;;;3.47;;
11827;SDS011;5971;49.646;8.568;2023-04-08T08:12:26;7.88;;;4.88;;
11827;SDS011;5971;49.646;8.568;2023-04-08T08:15:27;9.65;;;5.07;;
11827;SDS011;5971;49.646;8.568;2023-04-08T08:18:28;6.07;;;3.67;;
11827;SDS011;5971;49.646;8.568;2023-04-08T08:21:30;9.30;;;4.35;;
11827;SDS011;5971;49.646;8.568;2023-04-08T08:24:31;8.23;;;4.28;;
11827;SDS011;5971;49.646;8.568;2023-04-08T08:27:33;7.45;;;4.43;;
11827;SDS011;5971;49.646;8.568;2023-04-08T08:30:34;8.55;;;3.55;;
11827;SDS011;5971;49.646;8.568;2023-04-08T08:33:35;7.68;;;4.88;;
11827;SDS011;5971;49.646;8.568;2023-04-08T08:36:37;6.97;;;4.40;;
11827;SDS011;5971;49.646;8.568;2023-04-08T08:39:38;8.07;;;4.28;;
11827;SDS011;5971;49.646;8.568;2023-04-08T08:42:39;7.93;;;4.72;;
11827;SDS011;5971;49.646;8.568;2023-04-08T08:45:41;8.27;;;4.72;;
11827;SDS011;5971;49.646;8.568;2023-04-08T08:48:42;8.77;;;4.80;;
11827;SDS011;5971;49.646;8.568;2023-04-08T08:51:44;6.07;;;3.65;;
11827;SDS011;5971;49.646;8.568;2023-04-08T08:54:46;9.02;;;5.55;;
11827;SDS011;5971;49.646;8.568;2023-04-08T08:57:49;8.85;;;4.57;;
11827;SDS011;5971;49.646;8.568;2023-04-08T09:00:51;8.02;;;4.88;;
11827;SDS011;5971;49.646;8.568;2023-04-08T09:07:10;6.50;;;3.80;;
11827;SDS011;5971;49.646;8.568;2023-04-08T09:10:11;8.95;;;4.60;;
11827;SDS011;5971;49.646;8.568;2023-04-08T09:13:12;6.30;;;4.07;;
11827;SDS011;5971;49.646;8.568;2023-04-08T09:16:15;7.32;;;4.53;;
11827;SDS011;5971;49.646;8.568;2023-04-08T09:22:19;8.77;;;4.75;;
11827;SDS011;5971;49.646;8.568;2023-04-08T09:25:30;7.50;;;4.80;;
11827;SDS011;5971;49.646;8.568;2023-04-08T09:28:34;7.22;;;4.47;;
11827;SDS011;5971;49.646;8.568;2023-04-08T09:31:37;10.07;;;5.68;;
11827;SDS011;5971;49.646;8.568;2023-04-08T09:34:41;6.88;;;4.20;;
11827;SDS011;5971;49.646;8.568;2023-04-08T09:37:42;8.55;;;5.13;;
11827;SDS011;5971;49.646;8.568;2023-04-08T09:40:44;7.88;;;4.80;;
11827;SDS011;5971;49.646;8.568;2023-04-08T09:43:49;6.85;;;3.97;;
11827;SDS011;5971;49.646;8.568;2023-04-08T09:46:55;8.07;;;4.35;;
11827;SDS011;5971;49.646;8.568;2023-04-08T09:49:57;7.53;;;4.30;;
11827;SDS011;5971;49.646;8.568;2023-04-08T09:53:36;9.82;;;6.25;;
11827;SDS011;5971;49.646;8.568;2023-04-08T09:56:29;9.50;;;5.38;;
11827;SDS011;5971;49.646;8.568;2023-04-08T09:59:33;7.45;;;5.50;;
11827;SDS011;5971;49.646;8.568;2023-04-08T10:06:05;9.80;;;4.82;;
11827;SDS011;5971;49.646;8.568;2023-04-08T10:09:08;9.18;;;5.45;;
11827;SDS011;5971;49.646;8.568;2023-04-08T10:12:10;8.98;;;5.10;;
11827;SDS011;5971;49.646;8.568;2023-04-08T10:24:40;9.82;;;5.57;;
11827;SDS011;5971;49.646;8.568;2023-04-08T10:31:20;7.65;;;4.45;;
11827;SDS011;5971;49.646;8.568;2023-04-08T10:34:22;8.30;;;4.80;;
11827;SDS011;5971;49.646;8.568;2023-04-08T10:37:27;8.20;;;5.93;;
11827;SDS011;5971;49.646;8.568;2023-04-08T10:40:31;8.70;;;5.20;;
11827;SDS011;5971;49.646;8.568;2023-04-08T10:43:36;6.05;;;3.33;;
11827;SDS011;5971;49.646;8.568;2023-04-08T10:46:37;8.88;;;5.20;;
11827;SDS011;5971;49.646;8.568;2023-04-08T10:49:39;8.70;;;4.80;;
11827;SDS011;5971;49.646;8.568;2023-04-08T10:52:48;8.85;;;4.32;;
11827;SDS011;5971;49.646;8.568;2023-04-08T10:55:50;5.03;;;3.22;;
11827;SDS011;5971;49.646;8.568;2023-04-08T10:58:53;8.30;;;5.15;;
11827;SDS011;5971;49.646;8.568;2023-04-08T11:01:56;8.82;;;4.65;;
11827;SDS011;5971;49.646;8.568;2023-04-08T11:04:58;8.38;;;5.38;;
11827;SDS011;5971;49.646;8.568;2023-04-08T11:08:00;7.05;;;4.35;;
11827;SDS011;5971;49.646;8.568;2023-04-08T11:11:01;6.93;;;4.28;;
11827;SDS011;5971;49.646;8.568;2023-04-08T11:14:04;7.93;;;4.93;;
11827;SDS011;5971;49.646;8.568;2023-04-08T11:17:06;7.28;;;4.57;;
11827;SDS011;5971;49.646;8.568;2023-04-08T11:20:08;8.45;;;4.50;;
11827;SDS011;5971;49.646;8.568;2023-04-08T11:23:13;8.35;;;5.05;;
11827;SDS011;5971;49.646;8.568;2023-04-08T11:26:15;7.80;;;4.07;;
11827;SDS011;5971;49.646;8.568;2023-04-08T11:29:16;7.47;;;4.45;;
11827;SDS011;5971;49.646;8.568;2023-04-08T11:32:18;7.57;;;4.15;;
11827;SDS011;5971;49.646;8.568;2023-04-08T11:35:19;7.53;;;5.13;;
11827;SDS011;5971;49.646;8.568;2023-04-08T11:38:22;7.97;;;4.32;;
11827;SDS011;5971;49.646;8.568;2023-04-08T11:41:23;8.32;;;4.40;;
11827;SDS011;5971;49.646;8.568;2023-04-08T11:44:31;8.73;;;3.97;;
11827;SDS011;5971;49.646;8.568;2023-04-08T11:47:33;8.23;;;5.10;;
11827;SDS011;5971;49.646;8.568;2023-04-08T11:50:34;6.40;;;3.85;;
11827;SDS011;5971;49.646;8.568;2023-04-08T11:53:36;7.35;;;4.03;;
11827;SDS011;5971;49.646;8.568;2023-04-08T11:56:44;9.05;;;4.85;;
11827;SDS011;5971;49.646;8.568;2023-04-08T11:59:46;7.25;;;5.03;;
11827;SDS011;5971;49.646;8.568;2023-04-08T12:02:49;6.53;;;4.40;;
11827;SDS011;5971;49.646;8.568;2023-04-08T12:05:51;8.75;;;4.95;;
11827;SDS011;5971;49.646;8.568;2023-04-08T12:08:53;6.50;;;4.05;;
11827;SDS011;5971;49.646;8.568;2023-04-08T12:11:54;6.55;;;3.92;;
11827;SDS011;5971;49.646;8.568;2023-04-08T12:14:57;5.38;;;3.65;;
11827;SDS011;5971;49.646;8.568;2023-04-08T12:17:58;6.22;;;4.00;;
11827;SDS011;5971;49.646;8.568;2023-04-08T12:21:00;5.82;;;4.38;;
11827;SDS011;5971;49.646;8.568;2023-04-08T12:24:01;7.00;;;4.25;;
11827;SDS011;5971;49.646;8.568;2023-04-08T12:27:03;6.07;;;4.13;;
11827;SDS011;5971;49.646;8.568;2023-04-08T12:30:05;8.15;;;4.80;;
11827;SDS011;5971;49.646;8.568;2023-04-08T12:33:06;7.30;;;4.40;;
11827;SDS011;5971;49.646;8.568;2023-04-08T12:36:08;6.18;;;3.72;;
11827;SDS011;5971;49.646;8.568;2023-04-08T12:39:11;6.47;;;4.20;;
11827;SDS011;5971;49.646;8.568;2023-04-08T12:42:13;5.18;;;3.47;;
11827;SDS011;5971;49.646;8.568;2023-04-08T12:45:14;5.85;;;3.13;;
11827;SDS011;5971;49.646;8.568;2023-04-08T12:48:15;6.55;;;3.78;;
11827;SDS011;5971;49.646;8.568;2023-04-08T12:51:17;6.10;;;4.30;;
11827;SDS011;5971;49.646;8.568;2023-04-08T12:54:18;5.72;;;3.30;;
11827;SDS011;5971;49.646;8.568;2023-04-08T12:57:20;6.07;;;3.40;;
11827;SDS011;5971;49.646;8.568;2023-04-08T13:00:21;5.22;;;3.40;;
11827;SDS011;5971;49.646;8.568;2023-04-08T13:03:22;5.65;;;3.60;;
11827;SDS011;5971;49.646;8.568;2023-04-08T13:06:24;5.70;;;3.35;;
11827;SDS011;5971;49.646;8.568;2023-04-08T13:09:26;5.65;;;4.30;;
11827;SDS011;5971;49.646;8.568;2023-04-08T13:12:28;6.10;;;4.72;;
11827;SDS011;5971;49.646;8.568;2023-04-08T13:15:29;6.07;;;4.45;;
11827;SDS011;5971;49.646;8.568;2023-04-08T13:18:31;7.88;;;4.38;;
11827;SDS011;5971;49.646;8.568;2023-04-08T13:21:32;6.50;;;4.38;;
11827;SDS011;5971;49.646;8.568;2023-04-08T13:24:33;5.47;;;4.13;;
11827;SDS011;5971;49.646;8.568;2023-04-08T13:27:35;6.53;;;4.57;;
11827;SDS011;5971;49.646;8.568;2023-04-08T13:30:36;6.97;;;5.50;;
11827;SDS011;5971;49.646;8.568;2023-04-08T13:33:37;6.35;;;3.67;;
11827;SDS011;5971;49.646;8.568;2023-04-08T13:36:39;6.80;;;4.90;;
11827;SDS011;5971;49.646;8.568;2023-04-08T13:39:40;6.93;;;3.70;;
11827;SDS011;5971;49.646;8.568;2023-04-08T13:42:42;6.80;;;4.22;;
11827;SDS011;5971;49.646;8.568;2023-04-08T13:45:43;6.68;;;4.00;;
11827;SDS011;5971;49.646;8.568;2023-04-08T13:48:44;5.68;;;3.33;;
11827;SDS011;5971;49.646;8.568;2023-04-08T13:51:46;6.75;;;3.47;;
11827;SDS011;5971;49.646;8.568;2023-04-08T13:54:47;9.07;;;5.68;;
11827;SDS011;5971;49.646;8.568;2023-04-08T13:57:48;5.30;;;3.65;;
11827;SDS011;5971;49.646;8.568;2023-04-08T14:00:50;11.95;;;4.95;;
11827;SDS011;5971;49.646;8.568;2023-04-08T14:03:52;8.77;;;4.78;;
11827;SDS011;5971;49.646;8.568;2023-04-08T14:06:53;6.18;;;3.60;;
11827;SDS011;5971;49.646;8.568;2023-04-08T14:09:54;9.90;;;4.28;;
11827;SDS011;5971;49.646;8.568;2023-04-08T14:12:56;9.05;;;4.03;;
11827;SDS011;5971;49.646;8.568;2023-04-08T14:15:57;7.72;;;3.58;;
11827;SDS011;5971;49.646;8.568;2023-04-08T14:19:01;5.50;;;2.72;;
11827;SDS011;5971;49.646;8.568;2023-04-08T14:22:04;5.07;;;3.10;;
11827;SDS011;5971;49.646;8.568;2023-04-08T14:25:05;5.63;;;2.72;;
11827;SDS011;5971;49.646;8.568;2023-04-08T14:28:07;6.75;;;3.20;;
11827;SDS011;5971;49.646;8.568;2023-04-08T14:31:08;6.15;;;3.10;;
11827;SDS011;5971;49.646;8.568;2023-04-08T14:34:09;4.57;;;2.60;;
11827;SDS011;5971;49.646;8.568;2023-04-08T14:37:11;5.47;;;2.67;;
11827;SDS011;5971;49.646;8.568;2023-04-08T14:40:12;5.78;;;3.15;;
11827;SDS011;5971;49.646;8.568;2023-04-08T14:43:14;6.57;;;3.92;;
11827;SDS011;5971;49.646;8.568;2023-04-08T14:46:15;5.85;;;3.30;;
11827;SDS011;5971;49.646;8.568;2023-04-08T14:49:17;5.25;;;3.47;;
11827;SDS011;5971;49.646;8.568;2023-04-08T14:52:18;4.85;;;3.00;;
11827;SDS011;5971;49.646;8.568;2023-04-08T14:55:19;5.20;;;2.75;;
11827;SDS011;5971;49.646;8.568;2023-04-08T14:58:22;6.00;;;3.00;;
11827;SDS011;5971;49.646;8.568;2023-04-08T15:01:24;6.50;;;3.60;;
11827;SDS011;5971;49.646;8.568;2023-04-08T15:04:25;5.13;;;2.78;;
11827;SDS011;5971;49.646;8.568;2023-04-08T15:07:27;5.03;;;2.78;;
11827;SDS011;5971;49.646;8.568;2023-04-08T15:10:28;7.07;;;3.53;;
11827;SDS011;5971;49.646;8.568;2023-04-08T15:13:29;5.30;;;3.75;;
11827;SDS011;5971;49.646;8.568;2023-04-08T15:16:31;4.55;;;2.92;;
11827;SDS011;5971;49.646;8.568;2023-04-08T15:19:32;4.90;;;2.60;;
11827;SDS011;5971;49.646;8.568;2023-04-08T15:22:34;4.10;;;2.78;;
11827;SDS011;5971;49.646;8.568;2023-04-08T15:25:35;5.10;;;3.30;;
11827;SDS011;5971;49.646;8.568;2023-04-08T15:28:36;5.55;;;2.95;;
11827;SDS011;5971;49.646;8.568;2023-04-08T15:31:38;5.45;;;3.50;;
11827;SDS011;5971;49.646;8.568;2023-04-08T15:34:40;4.97;;;3.03;;
11827;SDS011;5971;49.646;8.568;2023-04-08T15:37:41;5.80;;;2.92;;
11827;SDS011;5971;49.646;8.568;2023-04-08T15:40:42;6.15;;;3.85;;
11827;SDS011;5971;49.646;8.568;2023-04-08T15:43:46;8.85;;;4.15;;
11827;SDS011;5971;49.646;8.568;2023-04-08T15:46:47;6.32;;;3.80;;
11827;SDS011;5971;49.646;8.568;2023-04-08T15:49:50;7.22;;;3.83;;
11827;SDS011;5971;49.646;8.568;2023-04-08T15:52:52;6.53;;;4.32;;
11827;SDS011;5971;49.646;8.568;2023-04-08T15:55:53;5.47;;;3.17;;
11827;SDS011;5971;49.646;8.568;2023-04-08T15:58:54;6.95;;;3.85;;
11827;SDS011;5971;49.646;8.568;2023-04-08T16:05:00;6.80;;;3.88;;
11827;SDS011;5971;49.646;8.568;2023-04-08T16:08:02;5.88;;;3.38;;
11827;SDS011;5971;49.646;8.568;2023-04-08T16:11:05;7.00;;;3.38;;
11827;SDS011;5971;49.646;8.568;2023-04-08T16:14:07;8.13;;;4.10;;
11827;SDS011;5971;49.646;8.568;2023-04-08T16:17:08;5.88;;;3.92;;
11827;SDS011;5971;49.646;8.568;2023-04-08T16:20:09;5.75;;;3.53;;
11827;SDS011;5971;49.646;8.568;2023-04-08T16:23:11;7.40;;;4.28;;
11827;SDS011;5971;49.646;8.568;2023-04-08T16:26:15;7.30;;;4.30;;
11827;SDS011;5971;49.646;8.568;2023-04-08T16:29:17;6.72;;;3.75;;
11827;SDS011;5971;49.646;8.568;2023-04-08T16:32:18;7.40;;;4.35;;
11827;SDS011;5971;49.646;8.568;2023-04-08T16:35:19;8.68;;;5.28;;
11827;SDS011;5971;49.646;8.568;2023-04-08T16:38:22;7.82;;;4.60;;
11827;SDS011;5971;49.646;8.568;2023-04-08T16:41:24;9.57;;;5.45;;
11827;SDS011;5971;49.646;8.568;2023-04-08T16:44:25;9.90;;;4.25;;
11827;SDS011;5971;49.646;8.568;2023-04-08T16:47:27;6.95;;;4.10;;
11827;SDS011;5971;49.646;8.568;2023-04-08T16:50:29;7.80;;;4.05;;
11827;SDS011;5971;49.646;8.568;2023-04-08T16:53:31;6.85;;;4.43;;
11827;SDS011;5971;49.646;8.568;2023-04-08T16:56:32;9.13;;;4.55;;
11827;SDS011;5971;49.646;8.568;2023-04-08T16:59:33;6.93;;;4.07;;
11827;SDS011;5971;49.646;8.568;2023-04-08T17:02:35;7.53;;;4.53;;
11827;SDS011;5971;49.646;8.568;2023-04-08T17:05:37;6.28;;;3.85;;
11827;SDS011;5971;49.646;8.568;2023-04-08T17:08:39;7.03;;;3.92;;
11827;SDS011;5971;49.646;8.568;2023-04-08T17:11:43;9.63;;;3.85;;
11827;SDS011;5971;49.646;8.568;2023-04-08T17:14:44;6.40;;;4.18;;
11827;SDS011;5971;49.646;8.568;2023-04-08T17:17:46;6.50;;;3.95;;
11827;SDS011;5971;49.646;8.568;2023-04-08T17:20:48;7.93;;;4.20;;
11827;SDS011;5971;49.646;8.568;2023-04-08T17:23:50;9.27;;;4.68;;
11827;SDS011;5971;49.646;8.568;2023-04-08T17:26:52;9.32;;;5.22;;
11827;SDS011;5971;49.646;8.568;2023-04-08T17:29:53;8.13;;;4.43;;
11827;SDS011;5971;49.646;8.568;2023-04-08T17:35:59;8.48;;;4.20;;
11827;SDS011;5971;49.646;8.568;2023-04-08T17:39:01;11.10;;;4.88;;
11827;SDS011;5971;49.646;8.568;2023-04-08T17:42:02;7.28;;;4.53;;
11827;SDS011;5971;49.646;8.568;2023-04-08T17:45:03;7.43;;;4.82;;
11827;SDS011;5971;49.646;8.568;2023-04-08T17:48:05;7.22;;;4.00;;
11827;SDS011;5971;49.646;8.568;2023-04-08T17:51:09;7.95;;;4.85;;
11827;SDS011;5971;49.646;8.568;2023-04-08T17:54:10;7.80;;;4.38;;
11827;SDS011;5971;49.646;8.568;2023-04-08T17:57:12;7.13;;;4.55;;
11827;SDS011;5971;49.646;8.568;2023-04-08T18:00:14;9.38;;;5.40;;
11827;SDS011;5971;49.646;8.568;2023-04-08T18:03:15;8.63;;;6.13;;
11827;SDS011;5971;49.646;8.568;2023-04-08T18:06:17;10.30;;;6.15;;
11827;SDS011;5971;49.646;8.568;2023-04-08T18:09:18;6.40;;;5.00;;
11827;SDS011;5971;49.646;8.568;2023-04-08T18:12:20;8.13;;;5.57;;
11827;SDS011;5971;49.646;8.568;2023-04-08T18:15:21;6.18;;;3.60;;
11827;SDS011;5971;49.646;8.568;2023-04-08T18:18:23;9.80;;;5.50;;
11827;SDS011;5971;49.646;8.568;2023-04-08T18:21:25;7.68;;;4.45;;
11827;SDS011;5971;49.646;8.568;2023-04-08T18:24:27;8.30;;;4.70;;
11827;SDS011;5971;49.646;8.568;2023-04-08T18:27:28;9.60;;;5.40;;
11827;SDS011;5971;49.646;8.568;2023-04-08T18:30:29;9.57;;;5.97;;
11827;SDS011;5971;49.646;8.568;2023-04-08T18:33:31;7.20;;;4.28;;
11827;SDS011;5971;49.646;8.568;2023-04-08T18:36:32;7.05;;;3.90;;
11827;SDS011;5971;49.646;8.568;2023-04-08T18:39:33;9.65;;;4.00;;
11827;SDS011;5971;49.646;8.568;2023-04-08T18:42:35;8.23;;;5.13;;
11827;SDS011;5971;49.646;8.568;2023-04-08T18:45:40;8.82;;;5.40;;
11827;SDS011;5971;49.646;8.568;2023-04-08T18:48:41;8.45;;;5.88;;
11827;SDS011;5971;49.646;8.568;2023-04-08T18:51:42;8.85;;;5.10;;
11827;SDS011;5971;49.646;8.568;2023-04-08T18:55:01;8.50;;;4.88;;
11827;SDS011;5971;49.646;8.568;2023-04-08T18:58:03;10.82;;;4.65;;
11827;SDS011;5971;49.646;8.568;2023-04-08T19:01:05;7.68;;;4.43;;
11827;SDS011;5971;49.646;8.568;2023-04-08T19:04:09;8.05;;;5.00;;
11827;SDS011;5971;49.646;8.568;2023-04-08T19:07:11;10.02;;;4.90;;